tititudorancea.com
Station Historical Data
Daily Summary for September 15, 2018 Units:  Metric    English   Both
« Previous Day
Next Day »
Daily Weekly Monthly Yearly Custom
  High: Low: Average:
Temperature: -17.8 °C 3.4 °C 8.5 °C
Dew Point: -17.8 °C -0.8 °C 2.6 °C
Humidity: Humidity % 29 % 68 %
Wind Speed: 0 km/h 8 km/h 25.1 km/h
Wind Gust: 0 km/h - -
Wind:- - West
Pressure: 0 hPa 998.5 hPa -
Precipitation: 3.81 mm    
Historical Graphs
 
 
Ararat weather Find more about Weather in Ararat, AU


 



 


Tabular Data for September 15, 2018
Time Temperature Dew Point Pressure Wind Wind Speed Wind Gust Humidity Rainfall Rate (Hourly)
-17.8 °C -17.8 °C 0 hPa Calm     Humidity % 0 mm
00:04 17.9 °C 0.1 °C 1000.2 hPa North 16.7 km/h 16.9 km/h 30 % 0 mm
00:09 17.9 °C 0.1 °C 1000.2 hPa NNW 22.2 km/h 10.8 km/h 30 % 0 mm
00:14 17.9 °C 0.1 °C 999.9 hPa North 22.2 km/h 14.6 km/h 30 % 0 mm
00:19 17.8 °C 0 °C 999.9 hPa NNW 33.3 km/h 19.5 km/h 30 % 0 mm
00:22 17.8 °C -0.1 °C 999.9 hPa North 25.9 km/h 17.2 km/h 30 % 0 mm
00:39 17.4 °C 0.1 °C 999.2 hPa North 27.4 km/h 16.1 km/h 31 % 0 mm
00:44 17.3 °C 0 °C 999.2 hPa North 27.8 km/h 18.3 km/h 31 % 0 mm
00:49 17.3 °C 0.4 °C 999.2 hPa North 20.9 km/h 11.1 km/h 32 % 0 mm
00:54 17.2 °C 0.3 °C 999.2 hPa North 18.5 km/h 12.6 km/h 32 % 0 mm
00:59 17.1 °C 0.3 °C 999.2 hPa North 20.4 km/h 12.2 km/h 32 % 0 mm
01:04 17.1 °C 0.3 °C 998.9 hPa North 18.5 km/h 14.5 km/h 32 % 0 mm
01:09 17.2 °C 0.3 °C 998.9 hPa North 14.8 km/h 6.4 km/h 32 % 0 mm
01:14 17.3 °C -0.1 °C 999.2 hPa North 18.5 km/h 11.9 km/h 31 % 0 mm
01:19 17.4 °C -0.4 °C 999.2 hPa North 38.6 km/h 20.3 km/h 30 % 0 mm
01:24 17.5 °C -0.3 °C 999.2 hPa North 31.5 km/h 19.8 km/h 30 % 0 mm
01:29 17.6 °C -0.2 °C 999.2 hPa NNW 40.7 km/h 20.3 km/h 30 % 0 mm
01:34 17.4 °C -0.8 °C 998.9 hPa NNW 40.7 km/h 25.7 km/h 29 % 0 mm
01:39 17.4 °C -0.4 °C 998.9 hPa NNW 25.9 km/h 18.7 km/h 30 % 0 mm
01:44 17.2 °C -0.6 °C 999.2 hPa North 31.5 km/h 20 km/h 30 % 0 mm
01:49 17 °C -0.3 °C 999.2 hPa NNW 25.9 km/h 18.7 km/h 31 % 0 mm
01:54 16.9 °C -0.3 °C 998.9 hPa NW 35.2 km/h 20.9 km/h 31 % 0 mm
01:59 16.7 °C -0.1 °C 998.9 hPa NNW 32.2 km/h 21.6 km/h 32 % 0 mm
02:04 16.6 °C -0.2 °C 998.9 hPa NW 22.5 km/h 14.5 km/h 32 % 0 mm
02:09 16.4 °C 0.1 °C 999.5 hPa NW 18.5 km/h 15.6 km/h 33 % 0 mm
02:14 16.3 °C 0.4 °C 998.9 hPa North 27.8 km/h 22.4 km/h 34 % 0 mm
02:19 16.3 °C 1.2 °C 998.9 hPa NW 31.5 km/h 16.7 km/h 36 % 0 mm
02:24 16.2 °C 1.9 °C 999.2 hPa NW 25.7 km/h 16.4 km/h 38 % 0 mm
02:29 16.1 °C 2.5 °C 999.2 hPa NW 35.2 km/h 22.9 km/h 40 % 0 mm
02:34 16 °C 3.1 °C 998.9 hPa NW 20.9 km/h 14 km/h 42 % 0 mm
02:39 15.8 °C 3.6 °C 998.9 hPa NW 14.8 km/h 9.7 km/h 44 % 0 mm
02:44 15.6 °C 3.7 °C 998.5 hPa NNW 20.4 km/h 10.9 km/h 45 % 0 mm
02:49 15.5 °C 3.9 °C 998.9 hPa WNW 20.4 km/h 11.3 km/h 46 % 0 mm
02:54 15.3 °C 4 °C 998.5 hPa North 14.8 km/h 12.2 km/h 47 % 0 mm
02:59 15.2 °C 4.5 °C 998.9 hPa North 16.7 km/h 10.1 km/h 49 % 0 mm
03:04 15.1 °C 4.7 °C 998.9 hPa NW 20.4 km/h 12.1 km/h 50 % 0 mm
03:09 15 °C 4.9 °C 998.9 hPa NW 17.7 km/h 10.6 km/h 51 % 0 mm
03:14 14.8 °C 5.1 °C 998.9 hPa NW 18.5 km/h 12.1 km/h 52 % 0 mm
03:19 14.7 °C 5.2 °C 998.9 hPa WNW 18.5 km/h 15 km/h 53 % 0 mm
03:24 14.5 °C 5.6 °C 999.2 hPa WNW 19.3 km/h 15.4 km/h 55 % 0 mm
03:29 14.4 °C 6.2 °C 998.9 hPa NW 22.2 km/h 15.6 km/h 58 % 0 mm
03:34 14.3 °C 6.1 °C 998.9 hPa NW 16.7 km/h 10.8 km/h 58 % 0 mm
03:39 14.2 °C 6.3 °C 998.9 hPa NW 18.5 km/h 9.7 km/h 59 % 0 mm
03:44 14.1 °C 6.7 °C 998.5 hPa NW 17.7 km/h 12.6 km/h 61 % 0 mm
03:49 14.1 °C 6.9 °C 998.9 hPa North 18.5 km/h 9.2 km/h 62 % 0 mm
03:54 13.9 °C 7 °C 998.5 hPa NNW 16.7 km/h 13 km/h 63 % 0 mm
03:59 13.8 °C 7.1 °C 998.9 hPa NNW 18.5 km/h 12.2 km/h 64 % 0 mm
04:04 13.7 °C 7.2 °C 998.9 hPa NW 18.5 km/h 13 km/h 65 % 0 mm
04:09 13.6 °C 7.3 °C 998.5 hPa NW 27.8 km/h 16.3 km/h 66 % 0 mm
04:14 13.5 °C 7.3 °C 998.9 hPa NW 25.9 km/h 15.8 km/h 66 % 0 mm
04:19 13.4 °C 7 °C 998.5 hPa North 18.5 km/h 12.4 km/h 65 % 0 mm
04:24 13.3 °C 6.9 °C 998.9 hPa NW 20.9 km/h 16.1 km/h 65 % 0 mm
04:29 13.3 °C 6.8 °C 999.5 hPa NW 29.6 km/h 16.7 km/h 65 % 0 mm
04:34 13.2 °C 6.7 °C 998.9 hPa NW 24.1 km/h 14.6 km/h 65 % 0 mm
04:39 13 °C 6.3 °C 998.5 hPa NW 25.9 km/h 16.7 km/h 64 % 0 mm
04:44 12.8 °C 5.9 °C 998.5 hPa NNW 24.1 km/h 14.8 km/h 63 % 0 mm
04:49 12.7 °C 5.8 °C 998.9 hPa NW 27.8 km/h 16.6 km/h 63 % 0 mm
04:54 12.7 °C 6.1 °C 998.9 hPa NW 29.6 km/h 17.9 km/h 64 % 0 mm
04:59 12.7 °C 6.1 °C 999.2 hPa North 25.9 km/h 19 km/h 64 % 0 mm
05:04 12.6 °C 6 °C 998.9 hPa NW 24.1 km/h 22.2 km/h 64 % 0 mm
05:09 12.5 °C 6.1 °C 998.5 hPa NW 20.4 km/h 11.4 km/h 65 % 0 mm
05:14 12.4 °C 6.1 °C 998.9 hPa NW 20.4 km/h 13.5 km/h 65 % 0 mm
05:19 12.4 °C 6.2 °C 998.9 hPa NW 25.9 km/h 15.6 km/h 66 % 0 mm
05:24 12.2 °C 6.1 °C 998.9 hPa North 24.1 km/h 13.8 km/h 66 % 0 mm
05:29 12.1 °C 5.9 °C 998.9 hPa NW 27.8 km/h 13.8 km/h 66 % 0 mm
05:34 12 °C 6.1 °C 998.9 hPa WNW 24.1 km/h 15.4 km/h 67 % 0 mm
05:39 11.9 °C 5.8 °C 998.9 hPa NW 27.8 km/h 25.9 km/h 66 % 0 mm
05:44 11.9 °C 6.2 °C 999.5 hPa WNW 29.6 km/h 15.9 km/h 68 % 0 mm
05:49 11.5 °C 6.4 °C 999.5 hPa North 35.2 km/h 23.5 km/h 71 % 0 mm
05:54 11.1 °C 6.3 °C 999.5 hPa WNW 35.2 km/h 19.3 km/h 72 % 0 mm
05:59 10.9 °C 6.4 °C 999.9 hPa North 22.2 km/h 19.3 km/h 74 % 0 mm
06:04 10.8 °C 6.5 °C 999.9 hPa WNW 25.9 km/h 13 km/h 75 % 0 mm
06:09 10.5 °C 6.4 °C 1000.2 hPa North 33.3 km/h 23.5 km/h 76 % 0 mm
06:14 10.3 °C 6.1 °C 1000.2 hPa WNW 33.3 km/h 20.9 km/h 75 % 0 mm
06:19 10.1 °C 5.7 °C 1000.2 hPa NW 18.5 km/h 17.2 km/h 74 % 0 mm
06:24 9.9 °C 5.7 °C 1000.2 hPa WNW 22.2 km/h 17.2 km/h 75 % 0 mm
06:29 9.8 °C 5.4 °C 1000.2 hPa WNW 33.3 km/h 15.4 km/h 74 % 0 mm
06:34 9.8 °C 5.2 °C 1000.6 hPa WNW 27.8 km/h 18.8 km/h 73 % 0 mm
06:39 9.8 °C 4.9 °C 1000.6 hPa WNW 31.5 km/h 24.1 km/h 72 % 0 mm
06:44 9.8 °C 4.9 °C 1000.6 hPa WNW 25.9 km/h 18.5 km/h 72 % 0 mm
06:49 9.8 °C 4.9 °C 1000.6 hPa WNW 20.4 km/h 18.3 km/h 72 % 0 mm
06:54 9.8 °C 4.8 °C 1000.9 hPa West 31.5 km/h 18 km/h 71 % 0 mm
06:59 9.6 °C 4.8 °C 1001.2 hPa West 45.1 km/h 27.5 km/h 72 % 0 mm
07:04 9.2 °C 5 °C 1001.2 hPa WNW 37 km/h 24.8 km/h 75 % 0 mm
07:09 9 °C 4.8 °C 1001.2 hPa North 31.5 km/h 21.4 km/h 75 % 0 mm
07:14 8.8 °C 4.7 °C 1001.2 hPa WNW 33.3 km/h 20.4 km/h 75 % 0 mm
07:19 8.8 °C 4.6 °C 1001.6 hPa North 33.3 km/h 20.8 km/h 75 % 0 mm
07:24 8.8 °C 4.6 °C 1001.6 hPa WNW 24.1 km/h 17.5 km/h 75 % 0 mm
07:29 8.7 °C 4.6 °C 1001.6 hPa North 18.5 km/h 11.1 km/h 75 % 0 mm
07:34 8.7 °C 4.6 °C 1001.9 hPa West 16.7 km/h 9.8 km/h 75 % 0 mm
07:39 8.7 °C 4.3 °C 1001.9 hPa WSW 14.8 km/h 14.8 km/h 74 % 0 mm
07:44 8.8 °C 4.4 °C 1001.9 hPa North 18.5 km/h 15.1 km/h 74 % 0 mm
07:49 8.8 °C 4.4 °C 1002.3 hPa North 18.5 km/h 13.2 km/h 74 % 0 mm
07:54 8.7 °C 4.1 °C 1002.6 hPa WSW 25.9 km/h 14.8 km/h 73 % 0 mm
07:59 8.3 °C 4.1 °C 1002.9 hPa West 24.1 km/h 16.9 km/h 75 % 0.2 mm
08:04 7.7 °C 4.3 °C 1003.3 hPa WSW 35.2 km/h 22 km/h 79 % 0.61 mm
08:09 7.2 °C 4.5 °C 1002.9 hPa WSW 18.5 km/h 16.9 km/h 83 % 0.79 mm
08:14 7.1 °C 4.2 °C 1002.9 hPa West 22.5 km/h 21.7 km/h 82 % 0.79 mm
08:19 7.3 °C 4.1 °C 1002.9 hPa WNW 33.3 km/h 21.4 km/h 80 % 0.79 mm
08:24 7.5 °C 3.9 °C 1002.9 hPa WSW 18.5 km/h 14.5 km/h 78 % 0.79 mm
08:29 7.6 °C 3.4 °C 1002.9 hPa West 20.9 km/h 17.5 km/h 75 % 0.79 mm
08:34 7.6 °C 3.1 °C 1002.9 hPa WSW 22.5 km/h 17.7 km/h 73 % 0.79 mm
08:39 7.7 °C 2.9 °C 1002.9 hPa WSW 31.5 km/h 28.6 km/h 72 % 0.79 mm
08:44 7.8 °C 3.1 °C 1002.9 hPa WSW 32.2 km/h 20.4 km/h 72 % 0.79 mm
08:49 7.9 °C 3.3 °C 1003.3 hPa WSW 27.8 km/h 19.8 km/h 73 % 0.79 mm
08:54 7.9 °C 3.6 °C 1003.6 hPa North 24.1 km/h 20.3 km/h 74 % 0.79 mm
08:59 7.9 °C 3.6 °C 1003.6 hPa North 24.1 km/h 17.4 km/h 74 % 0.79 mm
09:04 8 °C 3.8 °C 1003.6 hPa SW 27.4 km/h 19.5 km/h 75 % 0.41 mm
09:09 8.4 °C 4.2 °C 1003.6 hPa West 19.3 km/h 16.1 km/h 75 % 0 mm
09:14 8.8 °C 4.4 °C 1003.6 hPa WSW 37 km/h 24.5 km/h 74 % 0 mm
09:19 9 °C 4.2 °C 1003.6 hPa WSW 33.3 km/h 14.3 km/h 72 % 0 mm
09:24 9.2 °C 3.8 °C 1003.9 hPa WSW 38.6 km/h 21.4 km/h 69 % 0 mm
09:29 9.1 °C 3.4 °C 1003.9 hPa West 27.8 km/h 18.8 km/h 68 % 0 mm
09:34 9 °C 3.6 °C 1004.3 hPa SW 29 km/h 22 km/h 69 % 0 mm
09:39 8.9 °C 3.1 °C 1003.9 hPa West 33.8 km/h 27.8 km/h 67 % 0 mm
09:44 9.1 °C 3.1 °C 1004.3 hPa West 38.9 km/h 25.9 km/h 66 % 0 mm
09:49 9.2 °C 2.7 °C 1004.3 hPa West 40.7 km/h 30.1 km/h 64 % 0 mm
09:54 9.2 °C 2.5 °C 1004.3 hPa West 38.9 km/h 28.2 km/h 63 % 0 mm
09:59 9.3 °C 2.6 °C 1004.3 hPa West 42.6 km/h 29.9 km/h 63 % 0 mm
10:04 9.3 °C 2.2 °C 1004.6 hPa WSW 40.7 km/h 22.2 km/h 61 % 0 mm
10:09 9.4 °C 2.1 °C 1004.6 hPa West 37 km/h 27.2 km/h 60 % 0 mm
10:14 9.4 °C 2.7 °C 1004.6 hPa West 18.5 km/h 13.4 km/h 63 % 0 mm
10:19 9.5 °C 2.8 °C 1005 hPa WSW 31.5 km/h 14.5 km/h 63 % 0 mm
10:24 7.8 °C 2.1 °C 1005.6 hPa WSW 51.8 km/h 42.8 km/h 67 % 0 mm
10:29 5.9 °C 2.3 °C 1005.3 hPa WSW 38.9 km/h 23.7 km/h 78 % 0.61 mm
10:34 5.7 °C 2.7 °C 1005.3 hPa West 27.8 km/h 20.4 km/h 81 % 0.61 mm
10:39 6.2 °C 3 °C 1005.3 hPa West 33.3 km/h 21.1 km/h 80 % 0.61 mm
10:44 6.5 °C 3.5 °C 1005.3 hPa West 24.1 km/h 15.8 km/h 81 % 0.61 mm
10:49 7 °C 3.8 °C 1005.3 hPa West 25.9 km/h 18.8 km/h 80 % 0.61 mm
10:54 7.4 °C 4.2 °C 1005.6 hPa WSW 16.7 km/h 14 km/h 80 % 0.61 mm
10:59 7.9 °C 3.8 °C 1005.6 hPa West 31.5 km/h 21.9 km/h 75 % 0.61 mm
11:04 8.4 °C 4 °C 1005.6 hPa West 27.8 km/h 23.3 km/h 74 % 0.61 mm
11:09 8.6 °C 3.4 °C 1005.6 hPa WSW 33.3 km/h 20 km/h 70 % 0.61 mm
11:14 8.9 °C 3.9 °C 1005.6 hPa SW 29 km/h 22.4 km/h 71 % 0.61 mm
11:19 8.9 °C 3.3 °C 1006 hPa West 37 km/h 26.6 km/h 68 % 0.61 mm
11:24 9.2 °C 3.8 °C 1006 hPa SW 38.9 km/h 19.6 km/h 69 % 0.61 mm
11:29 9 °C 3.2 °C 1006 hPa WSW 19.3 km/h 15 km/h 67 % 0 mm
11:34 8.9 °C 3.3 °C 1006 hPa WSW 27.8 km/h 15.9 km/h 68 % 0 mm
11:39 8.7 °C 3.2 °C 1006.7 hPa WSW 31.5 km/h 22.2 km/h 68 % 0 mm
11:44 7.1 °C 3.2 °C 1006.7 hPa SW 33.3 km/h 19 km/h 76 % 0.2 mm
11:49 6.3 °C 3.4 °C 1007 hPa WSW 33.3 km/h 19.5 km/h 82 % 0.41 mm
11:54 6.3 °C 3.4 °C 1006.7 hPa WSW 27.8 km/h 16.3 km/h 82 % 0.41 mm
11:59 6.6 °C 3.9 °C 1006.7 hPa WSW 18.5 km/h 9.3 km/h 83 % 0.41 mm
12:04 7.1 °C 4.2 °C 1006.7 hPa WSW 20.4 km/h 10.6 km/h 82 % 0.41 mm
12:09 7.7 °C 4.3 °C 1007 hPa WSW 25.9 km/h 17.1 km/h 79 % 0.41 mm
12:14 7.7 °C 3.6 °C 1007 hPa SW 27.8 km/h 21.6 km/h 75 % 0.41 mm
12:19 8.1 °C 4.1 °C 1007 hPa SW 40.7 km/h 17.1 km/h 76 % 0.41 mm
12:24 8.7 °C 4.5 °C 1007 hPa SW 27.8 km/h 19.3 km/h 75 % 0.41 mm
12:29 7.7 °C 3.8 °C 1007 hPa SSW 33.3 km/h 19 km/h 76 % 0.41 mm
12:34 6.8 °C 3.6 °C 1007.3 hPa SW 37 km/h 23.8 km/h 80 % 0.41 mm
12:39 6.5 °C 3.8 °C 1007 hPa SW 35.2 km/h 26.9 km/h 83 % 0.41 mm
12:44 6.6 °C 3.9 °C 1007 hPa SW 42.6 km/h 24.9 km/h 83 % 0.2 mm
12:49 6.9 °C 4.4 °C 1007 hPa SW 37 km/h 19.8 km/h 84 % 0 mm
12:54 7.2 °C 4.9 °C 1007.3 hPa North 24.1 km/h 15.8 km/h 85 % 0.2 mm
12:59 7.6 °C 4.7 °C 1007.3 hPa WSW 37 km/h 22.2 km/h 82 % 0.2 mm
13:04 7.4 °C 4.1 °C 1008 hPa WSW 40.2 km/h 32 km/h 79 % 0.2 mm
13:09 5.5 °C 2.3 °C 1008.4 hPa SW 33.8 km/h 19.3 km/h 80 % 0.41 mm
13:14 4.7 °C 2.2 °C 1008.7 hPa North 42.6 km/h 29.5 km/h 84 % 0.79 mm
13:19 4.5 °C 2.3 °C 1008.4 hPa SW 31.5 km/h 20.3 km/h 86 % 0.99 mm
13:24 4.4 °C 2.4 °C 1008.4 hPa SW 35.2 km/h 16.4 km/h 87 % 1.19 mm
13:29 4.3 °C 2.3 °C 1008.4 hPa SW 29.6 km/h 18.3 km/h 87 % 1.4 mm
13:34 4.4 °C 2.6 °C 1008.4 hPa WSW 27.8 km/h 13.4 km/h 88 % 1.6 mm
13:39 4.9 °C 3.2 °C 1008 hPa WSW 31.5 km/h 16.3 km/h 89 % 1.6 mm
13:44 5.7 °C 4.1 °C 1008 hPa West 24.1 km/h 17.1 km/h 89 % 1.6 mm
13:49 6.1 °C 4.1 °C 1008.4 hPa West 20.9 km/h 20.1 km/h 87 % 1.6 mm
13:54 5.9 °C 3.4 °C 1008.4 hPa North 25.9 km/h 20.4 km/h 84 % 1.4 mm
13:59 6.1 °C 3.8 °C 1008.7 hPa West 27.8 km/h 20.9 km/h 85 % 1.4 mm
14:04 6.1 °C 3.6 °C 1008 hPa WNW 33.3 km/h 22 km/h 84 % 1.6 mm
14:09 6.1 °C 3.9 °C 1008 hPa West 16.7 km/h 16.4 km/h 86 % 1.4 mm
14:14 6.6 °C 4.1 °C 1008 hPa West 22.2 km/h 14.8 km/h 84 % 0.99 mm
14:19 7.1 °C 3.7 °C 1008 hPa West 24.1 km/h 15 km/h 79 % 0.79 mm
14:24 7.7 °C 3.9 °C 1008 hPa WSW 25.9 km/h 13.2 km/h 77 % 0.61 mm
14:29 7.9 °C 3.4 °C 1008 hPa West 25.9 km/h 21.1 km/h 73 % 0.41 mm
14:34 8.2 °C 3 °C 1008.4 hPa WSW 35.2 km/h 25.3 km/h 70 % 0.2 mm
14:39 8.4 °C 3.3 °C 1008.4 hPa WSW 31.5 km/h 19.5 km/h 70 % 0.2 mm
14:44 8.6 °C 2.8 °C 1008.7 hPa SW 27.8 km/h 23.3 km/h 67 % 0.2 mm
14:49 8.1 °C 2.1 °C 1009.4 hPa SW 61.2 km/h 40.7 km/h 66 % 0.2 mm
14:54 6.5 °C 1.8 °C 1009.4 hPa WSW 35.2 km/h 29.6 km/h 72 % 0.2 mm
14:59 6.3 °C 2.1 °C 1009.4 hPa West 35.2 km/h 26.4 km/h 74 % 0.2 mm
15:04 6.2 °C 2.1 °C 1009.7 hPa West 31.5 km/h 26.9 km/h 75 % 0 mm
15:09 6.1 °C 1.9 °C 1009.7 hPa WNW 32.2 km/h 30.3 km/h 75 % 0 mm
15:14 5.7 °C 1.9 °C 1009.7 hPa West 33.3 km/h 18.2 km/h 77 % 0.2 mm
15:19 5.5 °C 2.2 °C 1009.7 hPa WSW 29.6 km/h 15 km/h 79 % 0.2 mm
15:24 5.5 °C 2.2 °C 1009.7 hPa West 25.9 km/h 20.8 km/h 79 % 0.2 mm
15:29 5.7 °C 2.4 °C 1009.7 hPa West 25.9 km/h 16.3 km/h 79 % 0.2 mm
15:34 6.1 °C 2.7 °C 1009.7 hPa WSW 17.7 km/h 14.6 km/h 79 % 0.2 mm
15:39 6.4 °C 2.3 °C 1009.7 hPa WSW 42.6 km/h 24.8 km/h 75 % 0.2 mm
15:44 6.9 °C 2.6 °C 1009.7 hPa SW 24.1 km/h 15 km/h 74 % 0.2 mm
15:49 7.3 °C 2.2 °C 1009.7 hPa WSW 38.6 km/h 23.3 km/h 70 % 0.2 mm
15:54 7.5 °C 2.4 °C 1009.7 hPa West 35.2 km/h 24.9 km/h 70 % 0.2 mm
15:59 7.6 °C 2.1 °C 1009.7 hPa WSW 24.1 km/h 23.5 km/h 68 % 0.2 mm
16:04 7.7 °C 2.1 °C 1010 hPa West 27.4 km/h 19.3 km/h 68 % 0.2 mm
16:09 7.7 °C 2.1 °C 1010 hPa WSW 25.9 km/h 17.2 km/h 68 % 0.2 mm
16:14 7.7 °C 1.7 °C 1010 hPa SW 38.9 km/h 23 km/h 66 % 0 mm
16:19 7.5 °C 1.9 °C 1010.4 hPa North 27.8 km/h 16.3 km/h 68 % 0 mm
16:24 7.6 °C 2.4 °C 1010.4 hPa WSW 16.7 km/h 9.8 km/h 70 % 0 mm
16:29 7.8 °C 2.4 °C 1010.4 hPa WSW 20.4 km/h 13.2 km/h 69 % 0 mm
16:34 7.8 °C 1.8 °C 1010.4 hPa WSW 27.8 km/h 19.2 km/h 66 % 0 mm
16:39 7.6 °C 1.7 °C 1010.4 hPa North 24.1 km/h 16.6 km/h 66 % 0 mm
16:44 7.6 °C 1.6 °C 1010.7 hPa WSW 31.5 km/h 18.8 km/h 66 % 0 mm
16:49 6.7 °C 1.6 °C 1011.1 hPa WSW 31.5 km/h 21.2 km/h 70 % 0 mm
16:54 6.4 °C 1.6 °C 1011.1 hPa WSW 24.1 km/h 22 km/h 71 % 0 mm
16:59 6.8 °C 1.3 °C 1011.1 hPa West 31.5 km/h 23 km/h 68 % 0 mm
17:04 7.1 °C 0.9 °C 1011.1 hPa SW 29.6 km/h 19 km/h 65 % 0 mm
17:09 7 °C 0.9 °C 1011.1 hPa SW 22.5 km/h 19.5 km/h 65 % 0 mm
17:14 6.9 °C 0.8 °C 1011.1 hPa WSW 35.4 km/h 27 km/h 65 % 0 mm
17:18 7 °C 0.9 °C 1011.1 hPa West 29.6 km/h 24.3 km/h 65 % 0 mm
17:24 7.1 °C 1.2 °C 1011.4 hPa WSW 29.6 km/h 23.8 km/h 66 % 0 mm
17:29 6.7 °C 0.3 °C 1011.7 hPa West 37 km/h 24.5 km/h 64 % 0 mm
17:34 6.5 °C 0.6 °C 1011.7 hPa WSW 31.5 km/h 19.6 km/h 66 % 0 mm
17:39 6.4 °C 0.6 °C 1011.7 hPa WSW 25.9 km/h 14.5 km/h 66 % 0 mm
17:44 6.4 °C 0.5 °C 1012.1 hPa North 22.2 km/h 12.7 km/h 66 % 0 mm
17:49 6.3 °C 0.2 °C 1012.1 hPa West 29.6 km/h 18.2 km/h 65 % 0 mm
17:54 6.2 °C -0.2 °C 1012.1 hPa WSW 29.6 km/h 19.3 km/h 64 % 0 mm
17:59 6 °C -0.1 °C 1012.4 hPa WSW 35.2 km/h 21.4 km/h 65 % 0 mm
18:04 5.9 °C -0.2 °C 1012.8 hPa WSW 30.6 km/h 17.4 km/h 65 % 0 mm
18:09 5.8 °C -0.1 °C 1012.4 hPa WSW 29.6 km/h 16.6 km/h 66 % 0 mm
18:14 5.7 °C -0.2 °C 1012.8 hPa SW 31.5 km/h 16.6 km/h 66 % 0 mm
18:19 5.6 °C -0.2 °C 1012.8 hPa WSW 27.8 km/h 17.7 km/h 66 % 0 mm
18:24 5.6 °C -0.1 °C 1012.8 hPa WSW 19.3 km/h 16.1 km/h 67 % 0 mm
18:29 5.6 °C -0.1 °C 1012.8 hPa WSW 25.9 km/h 21.9 km/h 67 % 0 mm
18:34 5.5 °C 0.1 °C 1013.1 hPa WSW 20.9 km/h 18.5 km/h 68 % 0 mm
18:39 5.5 °C 0.1 °C 1013.1 hPa North 19.3 km/h 10.5 km/h 68 % 0 mm
18:44 5.5 °C 0.1 °C 1013.4 hPa WSW 25.9 km/h 20 km/h 68 % 0 mm
18:49 5.6 °C 0.2 °C 1013.4 hPa WSW 24.1 km/h 18.5 km/h 68 % 0 mm
18:54 5.5 °C 0.3 °C 1013.8 hPa SW 35.4 km/h 21.7 km/h 69 % 0 mm
18:59 5.4 °C 0.6 °C 1014.1 hPa SW 33.3 km/h 17.5 km/h 71 % 0 mm
19:04 5.2 °C 0.8 °C 1014.4 hPa West 24.1 km/h 15.3 km/h 73 % 0 mm
19:09 4.8 °C 0.8 °C 1014.8 hPa SW 13 km/h 11.1 km/h 75 % 0 mm
19:14 4.6 °C 0.7 °C 1014.8 hPa WSW 31.5 km/h 20 km/h 76 % 0 mm
19:19 4.4 °C 0.9 °C 1015.1 hPa West 18.5 km/h 11.9 km/h 78 % 0 mm
19:24 4.3 °C 0.8 °C 1015.1 hPa North 31.5 km/h 21.7 km/h 78 % 0 mm
19:29 4.2 °C 0.7 °C 1015.1 hPa WSW 18.5 km/h 15.1 km/h 78 % 0 mm
19:34 4.3 °C 0.8 °C 1015.1 hPa West 22.2 km/h 19.5 km/h 78 % 0 mm
19:39 4.3 °C 0.8 °C 1015.5 hPa WSW 16.7 km/h 10.9 km/h 78 % 0 mm
19:44 4.3 °C 0.8 °C 1015.5 hPa West 27.8 km/h 19.3 km/h 78 % 0 mm
19:49 4.2 °C 0.7 °C 1015.5 hPa North 18.5 km/h 18.5 km/h 78 % 0 mm
19:54 4.1 °C 0.7 °C 1015.8 hPa WSW 24.1 km/h 13.5 km/h 79 % 0 mm
19:59 3.9 °C 0.8 °C 1015.8 hPa WSW 18.5 km/h 10.5 km/h 80 % 0 mm
20:04 3.8 °C 0.7 °C 1015.5 hPa West 13 km/h 6.6 km/h 80 % 0 mm
20:09 3.7 °C 0.6 °C 1015.5 hPa West 12.9 km/h 13.5 km/h 80 % 0 mm
20:14 3.7 °C 0.6 °C 1015.5 hPa WSW 13 km/h 10.3 km/h 80 % 0 mm
20:19 3.7 °C 0.6 °C 1015.8 hPa WSW 13 km/h 9.2 km/h 80 % 0 mm
20:24 3.7 °C 0.6 °C 1015.8 hPa North 18.5 km/h 10.3 km/h 80 % 0 mm
20:29 3.7 °C 0.6 °C 1015.8 hPa North 18.5 km/h 12.1 km/h 80 % 0 mm
20:34 3.7 °C 0.6 °C 1015.8 hPa West 14.8 km/h 10.6 km/h 80 % 0 mm
20:39 3.7 °C 0.6 °C 1015.8 hPa West 14.8 km/h 11.7 km/h 80 % 0 mm
20:44 3.6 °C 0.7 °C 1015.8 hPa West 14.8 km/h 10.8 km/h 81 % 0 mm
20:49 3.6 °C 0.6 °C 1015.8 hPa West 13 km/h 10.9 km/h 81 % 0 mm
20:54 3.6 °C 0.8 °C 1015.8 hPa West 11.1 km/h 8.4 km/h 82 % 0 mm
20:59 3.6 °C 0.6 °C 1015.8 hPa West 11.1 km/h 8.5 km/h 81 % 0 mm
21:04 3.6 °C 0.8 °C 1016.1 hPa West 11.1 km/h 8.2 km/h 82 % 0 mm
21:09 3.6 °C 0.7 °C 1016.1 hPa North 11.3 km/h 8.4 km/h 81 % 0 mm
21:14 3.7 °C 0.7 °C 1016.1 hPa West 14.5 km/h 10.5 km/h 81 % 0 mm
21:19 3.8 °C 0.8 °C 1016.5 hPa WSW 14.8 km/h 7.1 km/h 81 % 0 mm
21:24 3.8 °C 0.7 °C 1016.5 hPa North 16.7 km/h 8.9 km/h 80 % 0 mm
21:29 3.7 °C 0.6 °C 1016.5 hPa North 16.7 km/h 11.9 km/h 80 % 0 mm
21:34 3.7 °C 0.6 °C 1016.5 hPa North 14.8 km/h 10.3 km/h 80 % 0 mm
21:39 3.6 °C 0.7 °C 1016.5 hPa WNW 13 km/h 10.9 km/h 81 % 0 mm
21:44 3.5 °C 0.6 °C 1016.8 hPa North 11.3 km/h 10.1 km/h 81 % 0 mm
21:49 3.5 °C 0.6 °C 1016.8 hPa West 11.1 km/h 8.9 km/h 81 % 0 mm
21:54 3.5 °C 0.6 °C 1016.8 hPa West 11.1 km/h 7.1 km/h 81 % 0 mm
21:59 3.4 °C 0.5 °C 1016.8 hPa West 12.9 km/h 9.2 km/h 81 % 0 mm
22:04 3.4 °C 0.5 °C 1016.8 hPa West 13 km/h 10.6 km/h 81 % 0 mm
22:09 3.5 °C 0.6 °C 1016.8 hPa West 11.1 km/h 8 km/h 81 % 0 mm
22:14 3.5 °C 0.6 °C 1016.8 hPa West 9.3 km/h 6.6 km/h 81 % 0 mm
22:19 3.5 °C 0.7 °C 1016.8 hPa West 14.5 km/h 11.3 km/h 82 % 0 mm
22:24 3.6 °C 0.7 °C 1017.2 hPa West 11.1 km/h 7.4 km/h 81 % 0 mm
22:29 3.6 °C 0.7 °C 1017.2 hPa North 9.3 km/h 6.9 km/h 81 % 0 mm
22:34 3.6 °C 0.7 °C 1017.2 hPa West 13 km/h 9.7 km/h 81 % 0 mm
22:39 3.7 °C 0.6 °C 1017.2 hPa West 11.1 km/h 6 km/h 80 % 0 mm
22:44 3.8 °C 0.7 °C 1017.2 hPa West 11.1 km/h 8.5 km/h 80 % 0 mm
22:49 3.9 °C 0.8 °C 1017.2 hPa West 18.5 km/h 7.1 km/h 80 % 0 mm
22:54 3.9 °C 0.6 °C 1017.5 hPa West 9.3 km/h 7.9 km/h 79 % 0 mm
22:59 3.9 °C 0.8 °C 1017.5 hPa West 14.8 km/h 11.6 km/h 80 % 0 mm
23:04 4.1 °C 0.7 °C 1017.5 hPa West 20.4 km/h 10 km/h 79 % 0 mm
23:09 4.2 °C 0.8 °C 1017.5 hPa WSW 11.3 km/h 7.9 km/h 79 % 0 mm
23:14 4.4 °C 0.9 °C 1017.5 hPa WSW 16.7 km/h 15.3 km/h 78 % 0 mm
23:19 4.6 °C 0.9 °C 1017.5 hPa WSW 18.5 km/h 13.5 km/h 77 % 0 mm
23:24 4.6 °C 0.9 °C 1017.5 hPa WSW 14.8 km/h 8 km/h 77 % 0 mm
23:29 4.7 °C 1 °C 1017.2 hPa WSW 13 km/h 7.9 km/h 77 % 0 mm
23:34 4.7 °C 0.8 °C 1017.2 hPa SW 18.5 km/h 10.3 km/h 76 % 0 mm
23:39 4.7 °C 0.8 °C 1017.2 hPa WSW 14.8 km/h 6 km/h 76 % 0 mm
23:44 4.6 °C 0.7 °C 1017.2 hPa North 13 km/h 9 km/h 76 % 0 mm
23:49 4.6 °C 0.7 °C 1017.2 hPa WSW 8 km/h 8.7 km/h 76 % 0 mm
23:54 4.5 °C 0.8 °C 1017.2 hPa WSW 13 km/h 7.2 km/h 77 % 0 mm
23:59 4.4 °C 0.6 °C 1017.5 hPa North 11.3 km/h 6.9 km/h 76 % 0 mm
Ararat Weather
Compliments of Weather Underground - 2.25 mb
Click here to send mail.


ABOUT

Live weather data from Ararat, Victoria, Australia, 3377
Data uploaded from Cumulus every 5 minutes to Weather Underground.
This site then downloads the raw data for formatting and display.
Metric and imperial data can be displayed. Graphs and historical data available.
Includes Sun and Moon times and rain image live from BOM.

Check out Ararat Weather on Facebook, Twitter and Google +

Help support ongoing costs by checking out the ads





Follow @AraratWeather